sensor_id;sensor_type;location;lat;lon;timestamp;P1;durP1;ratioP1;P2;durP2;ratioP2
7783;SDS011;19359;51.402;6.778;2022-11-20T00:00:37;20.20;;;13.40;;
7783;SDS011;19359;51.402;6.778;2022-11-20T00:03:04;25.77;;;13.98;;
7783;SDS011;19359;51.402;6.778;2022-11-20T00:05:33;20.33;;;12.30;;
7783;SDS011;19359;51.402;6.778;2022-11-20T00:08:00;23.17;;;12.65;;
7783;SDS011;19359;51.402;6.778;2022-11-20T00:10:26;24.02;;;12.43;;
7783;SDS011;19359;51.402;6.778;2022-11-20T00:12:53;21.15;;;13.23;;
7783;SDS011;19359;51.402;6.778;2022-11-20T00:15:20;20.60;;;12.77;;
7783;SDS011;19359;51.402;6.778;2022-11-20T00:17:46;29.83;;;12.00;;
7783;SDS011;19359;51.402;6.778;2022-11-20T00:20:13;21.73;;;13.15;;
7783;SDS011;19359;51.402;6.778;2022-11-20T00:22:42;26.20;;;12.98;;
7783;SDS011;19359;51.402;6.778;2022-11-20T00:25:08;23.30;;;12.85;;
7783;SDS011;19359;51.402;6.778;2022-11-20T00:27:36;24.30;;;12.80;;
7783;SDS011;19359;51.402;6.778;2022-11-20T00:30:03;21.40;;;12.85;;
7783;SDS011;19359;51.402;6.778;2022-11-20T00:32:30;21.33;;;12.90;;
7783;SDS011;19359;51.402;6.778;2022-11-20T00:34:57;25.88;;;14.07;;
7783;SDS011;19359;51.402;6.778;2022-11-20T00:37:24;21.77;;;12.32;;
7783;SDS011;19359;51.402;6.778;2022-11-20T00:39:52;23.05;;;14.07;;
7783;SDS011;19359;51.402;6.778;2022-11-20T00:42:18;20.58;;;13.15;;
7783;SDS011;19359;51.402;6.778;2022-11-20T00:44:45;23.40;;;13.80;;
7783;SDS011;19359;51.402;6.778;2022-11-20T00:47:12;24.63;;;14.70;;
7783;SDS011;19359;51.402;6.778;2022-11-20T00:49:38;39.60;;;17.92;;
7783;SDS011;19359;51.402;6.778;2022-11-20T00:52:05;27.80;;;15.90;;
7783;SDS011;19359;51.402;6.778;2022-11-20T00:54:32;33.03;;;18.10;;
7783;SDS011;19359;51.402;6.778;2022-11-20T00:57:00;28.10;;;16.75;;
7783;SDS011;19359;51.402;6.778;2022-11-20T00:59:27;29.63;;;15.55;;
7783;SDS011;19359;51.402;6.778;2022-11-20T01:01:53;32.88;;;18.33;;
7783;SDS011;19359;51.402;6.778;2022-11-20T01:04:20;29.02;;;16.45;;
7783;SDS011;19359;51.402;6.778;2022-11-20T01:06:47;33.63;;;17.75;;
7783;SDS011;19359;51.402;6.778;2022-11-20T01:09:14;36.35;;;17.08;;
7783;SDS011;19359;51.402;6.778;2022-11-20T01:11:41;32.58;;;17.40;;
7783;SDS011;19359;51.402;6.778;2022-11-20T01:14:12;29.67;;;15.75;;
7783;SDS011;19359;51.402;6.778;2022-11-20T01:16:42;24.98;;;15.20;;
7783;SDS011;19359;51.402;6.778;2022-11-20T01:19:11;26.20;;;16.35;;
7783;SDS011;19359;51.402;6.778;2022-11-20T01:21:40;30.42;;;16.95;;
7783;SDS011;19359;51.402;6.778;2022-11-20T01:24:10;32.47;;;17.60;;
7783;SDS011;19359;51.402;6.778;2022-11-20T01:26:39;31.05;;;16.55;;
7783;SDS011;19359;51.402;6.778;2022-11-20T01:29:08;28.77;;;16.02;;
7783;SDS011;19359;51.402;6.778;2022-11-20T01:31:39;26.10;;;14.82;;
7783;SDS011;19359;51.402;6.778;2022-11-20T01:34:07;27.63;;;14.13;;
7783;SDS011;19359;51.402;6.778;2022-11-20T01:36:37;25.05;;;14.60;;
7783;SDS011;19359;51.402;6.778;2022-11-20T01:39:05;21.42;;;13.35;;
7783;SDS011;19359;51.402;6.778;2022-11-20T01:41:34;27.67;;;14.30;;
7783;SDS011;19359;51.402;6.778;2022-11-20T01:44:20;21.58;;;13.35;;
7783;SDS011;19359;51.402;6.778;2022-11-20T01:46:51;21.23;;;13.88;;
7783;SDS011;19359;51.402;6.778;2022-11-20T01:49:24;25.08;;;14.30;;
7783;SDS011;19359;51.402;6.778;2022-11-20T01:51:55;22.02;;;13.75;;
7783;SDS011;19359;51.402;6.778;2022-11-20T01:54:25;19.73;;;13.23;;
7783;SDS011;19359;51.402;6.778;2022-11-20T01:56:57;23.27;;;13.05;;
7783;SDS011;19359;51.402;6.778;2022-11-20T01:59:27;18.65;;;12.90;;
7783;SDS011;19359;51.402;6.778;2022-11-20T02:01:55;24.92;;;13.70;;
7783;SDS011;19359;51.402;6.778;2022-11-20T02:04:22;19.88;;;14.18;;
7783;SDS011;19359;51.402;6.778;2022-11-20T02:06:51;22.63;;;12.77;;
7783;SDS011;19359;51.402;6.778;2022-11-20T02:09:23;24.05;;;13.98;;
7783;SDS011;19359;51.402;6.778;2022-11-20T02:11:50;21.80;;;14.15;;
7783;SDS011;19359;51.402;6.778;2022-11-20T02:14:17;18.60;;;13.00;;
7783;SDS011;19359;51.402;6.778;2022-11-20T02:16:45;20.30;;;13.48;;
7783;SDS011;19359;51.402;6.778;2022-11-20T02:19:14;23.30;;;13.88;;
7783;SDS011;19359;51.402;6.778;2022-11-20T02:21:47;20.83;;;13.52;;
7783;SDS011;19359;51.402;6.778;2022-11-20T02:24:21;25.27;;;14.63;;
7783;SDS011;19359;51.402;6.778;2022-11-20T02:26:49;21.55;;;14.38;;
7783;SDS011;19359;51.402;6.778;2022-11-20T02:29:23;21.10;;;13.43;;
7783;SDS011;19359;51.402;6.778;2022-11-20T02:31:52;19.75;;;13.23;;
7783;SDS011;19359;51.402;6.778;2022-11-20T02:34:21;24.10;;;13.77;;
7783;SDS011;19359;51.402;6.778;2022-11-20T02:36:48;24.23;;;14.90;;
7783;SDS011;19359;51.402;6.778;2022-11-20T02:39:17;22.15;;;13.73;;
7783;SDS011;19359;51.402;6.778;2022-11-20T02:41:46;19.52;;;13.48;;
7783;SDS011;19359;51.402;6.778;2022-11-20T02:44:13;18.25;;;12.65;;
7783;SDS011;19359;51.402;6.778;2022-11-20T02:46:39;22.05;;;14.38;;
7783;SDS011;19359;51.402;6.778;2022-11-20T02:49:06;19.73;;;13.52;;
7783;SDS011;19359;51.402;6.778;2022-11-20T02:51:33;20.45;;;12.63;;
7783;SDS011;19359;51.402;6.778;2022-11-20T02:54:00;21.48;;;13.73;;
7783;SDS011;19359;51.402;6.778;2022-11-20T02:56:26;20.10;;;13.48;;
7783;SDS011;19359;51.402;6.778;2022-11-20T02:58:55;20.95;;;13.50;;
7783;SDS011;19359;51.402;6.778;2022-11-20T03:01:22;25.05;;;14.77;;
7783;SDS011;19359;51.402;6.778;2022-11-20T03:03:48;20.17;;;13.13;;
7783;SDS011;19359;51.402;6.778;2022-11-20T03:06:15;25.48;;;14.02;;
7783;SDS011;19359;51.402;6.778;2022-11-20T03:08:42;19.35;;;12.63;;
7783;SDS011;19359;51.402;6.778;2022-11-20T03:11:09;20.77;;;13.35;;
7783;SDS011;19359;51.402;6.778;2022-11-20T03:13:36;25.02;;;13.77;;
7783;SDS011;19359;51.402;6.778;2022-11-20T03:16:08;22.73;;;13.10;;
7783;SDS011;19359;51.402;6.778;2022-11-20T03:18:37;21.33;;;12.80;;
7783;SDS011;19359;51.402;6.778;2022-11-20T03:21:04;19.90;;;12.60;;
7783;SDS011;19359;51.402;6.778;2022-11-20T03:23:31;20.15;;;12.63;;
7783;SDS011;19359;51.402;6.778;2022-11-20T03:26:09;20.88;;;12.90;;
7783;SDS011;19359;51.402;6.778;2022-11-20T03:28:37;22.90;;;13.32;;
7783;SDS011;19359;51.402;6.778;2022-11-20T03:31:05;19.15;;;12.80;;
7783;SDS011;19359;51.402;6.778;2022-11-20T03:33:34;19.40;;;12.95;;
7783;SDS011;19359;51.402;6.778;2022-11-20T03:36:01;25.25;;;13.55;;
7783;SDS011;19359;51.402;6.778;2022-11-20T03:38:28;24.10;;;13.60;;
7783;SDS011;19359;51.402;6.778;2022-11-20T03:40:58;20.30;;;13.82;;
7783;SDS011;19359;51.402;6.778;2022-11-20T03:43:26;24.50;;;14.25;;
7783;SDS011;19359;51.402;6.778;2022-11-20T03:45:53;29.95;;;14.75;;
7783;SDS011;19359;51.402;6.778;2022-11-20T03:48:21;26.98;;;15.68;;
7783;SDS011;19359;51.402;6.778;2022-11-20T03:50:47;22.45;;;13.80;;
7783;SDS011;19359;51.402;6.778;2022-11-20T03:53:14;20.45;;;14.30;;
7783;SDS011;19359;51.402;6.778;2022-11-20T03:55:41;24.52;;;14.75;;
7783;SDS011;19359;51.402;6.778;2022-11-20T03:58:08;22.17;;;13.77;;
7783;SDS011;19359;51.402;6.778;2022-11-20T04:00:35;18.00;;;13.02;;
7783;SDS011;19359;51.402;6.778;2022-11-20T04:03:03;19.00;;;13.50;;
7783;SDS011;19359;51.402;6.778;2022-11-20T04:05:32;22.13;;;14.70;;
7783;SDS011;19359;51.402;6.778;2022-11-20T04:07:59;25.63;;;14.57;;
7783;SDS011;19359;51.402;6.778;2022-11-20T04:10:26;26.85;;;15.20;;
7783;SDS011;19359;51.402;6.778;2022-11-20T04:12:52;25.27;;;14.98;;
7783;SDS011;19359;51.402;6.778;2022-11-20T04:15:19;25.70;;;15.30;;
7783;SDS011;19359;51.402;6.778;2022-11-20T04:17:46;21.30;;;14.32;;
7783;SDS011;19359;51.402;6.778;2022-11-20T04:20:12;25.38;;;15.00;;
7783;SDS011;19359;51.402;6.778;2022-11-20T04:22:41;24.00;;;14.40;;
7783;SDS011;19359;51.402;6.778;2022-11-20T04:25:08;20.85;;;14.18;;
7783;SDS011;19359;51.402;6.778;2022-11-20T04:27:34;23.30;;;14.98;;
7783;SDS011;19359;51.402;6.778;2022-11-20T04:30:01;22.83;;;15.27;;
7783;SDS011;19359;51.402;6.778;2022-11-20T04:32:29;22.10;;;14.18;;
7783;SDS011;19359;51.402;6.778;2022-11-20T04:34:55;24.80;;;14.50;;
7783;SDS011;19359;51.402;6.778;2022-11-20T04:37:22;23.52;;;14.80;;
7783;SDS011;19359;51.402;6.778;2022-11-20T04:39:50;24.23;;;15.93;;
7783;SDS011;19359;51.402;6.778;2022-11-20T04:42:17;25.70;;;14.73;;
7783;SDS011;19359;51.402;6.778;2022-11-20T04:44:56;26.58;;;14.40;;
7783;SDS011;19359;51.402;6.778;2022-11-20T04:47:23;33.83;;;15.50;;
7783;SDS011;19359;51.402;6.778;2022-11-20T04:49:50;23.17;;;15.77;;
7783;SDS011;19359;51.402;6.778;2022-11-20T04:52:17;32.70;;;16.45;;
7783;SDS011;19359;51.402;6.778;2022-11-20T04:54:43;24.08;;;14.57;;
7783;SDS011;19359;51.402;6.778;2022-11-20T04:57:13;23.77;;;15.40;;
7783;SDS011;19359;51.402;6.778;2022-11-20T04:59:40;24.85;;;14.95;;
7783;SDS011;19359;51.402;6.778;2022-11-20T05:02:07;24.70;;;16.33;;
7783;SDS011;19359;51.402;6.778;2022-11-20T05:04:34;21.92;;;15.88;;
7783;SDS011;19359;51.402;6.778;2022-11-20T05:07:00;26.02;;;16.50;;
7783;SDS011;19359;51.402;6.778;2022-11-20T05:09:27;25.67;;;16.88;;
7783;SDS011;19359;51.402;6.778;2022-11-20T05:11:54;31.17;;;16.60;;
7783;SDS011;19359;51.402;6.778;2022-11-20T05:14:22;32.70;;;17.77;;
7783;SDS011;19359;51.402;6.778;2022-11-20T05:16:49;27.73;;;17.67;;
7783;SDS011;19359;51.402;6.778;2022-11-20T05:19:15;28.42;;;18.13;;
7783;SDS011;19359;51.402;6.778;2022-11-20T05:21:42;31.63;;;17.30;;
7783;SDS011;19359;51.402;6.778;2022-11-20T05:24:09;40.17;;;18.25;;
7783;SDS011;19359;51.402;6.778;2022-11-20T05:26:36;28.13;;;17.08;;
7783;SDS011;19359;51.402;6.778;2022-11-20T05:29:03;31.63;;;17.85;;
7783;SDS011;19359;51.402;6.778;2022-11-20T05:31:31;30.05;;;17.08;;
7783;SDS011;19359;51.402;6.778;2022-11-20T05:33:58;28.25;;;17.00;;
7783;SDS011;19359;51.402;6.778;2022-11-20T05:36:24;25.75;;;16.38;;
7783;SDS011;19359;51.402;6.778;2022-11-20T05:38:51;30.20;;;17.83;;
7783;SDS011;19359;51.402;6.778;2022-11-20T05:41:18;28.45;;;17.30;;
7783;SDS011;19359;51.402;6.778;2022-11-20T05:43:46;22.92;;;16.65;;
7783;SDS011;19359;51.402;6.778;2022-11-20T05:46:15;26.85;;;17.70;;
7783;SDS011;19359;51.402;6.778;2022-11-20T05:48:45;26.08;;;18.30;;
7783;SDS011;19359;51.402;6.778;2022-11-20T05:51:13;31.58;;;17.48;;
7783;SDS011;19359;51.402;6.778;2022-11-20T05:53:42;26.77;;;18.08;;
7783;SDS011;19359;51.402;6.778;2022-11-20T05:56:10;30.63;;;19.63;;
7783;SDS011;19359;51.402;6.778;2022-11-20T05:58:38;30.95;;;19.58;;
7783;SDS011;19359;51.402;6.778;2022-11-20T06:01:06;31.17;;;18.67;;
7783;SDS011;19359;51.402;6.778;2022-11-20T06:03:33;29.70;;;17.42;;
7783;SDS011;19359;51.402;6.778;2022-11-20T06:06:02;29.02;;;19.45;;
7783;SDS011;19359;51.402;6.778;2022-11-20T06:08:30;33.47;;;18.98;;
7783;SDS011;19359;51.402;6.778;2022-11-20T06:10:57;30.95;;;17.33;;
7783;SDS011;19359;51.402;6.778;2022-11-20T06:13:24;30.70;;;18.95;;
7783;SDS011;19359;51.402;6.778;2022-11-20T06:15:51;30.10;;;18.05;;
7783;SDS011;19359;51.402;6.778;2022-11-20T06:18:19;32.33;;;17.92;;
7783;SDS011;19359;51.402;6.778;2022-11-20T06:20:46;27.88;;;18.48;;
7783;SDS011;19359;51.402;6.778;2022-11-20T06:23:14;31.08;;;19.13;;
7783;SDS011;19359;51.402;6.778;2022-11-20T06:25:42;33.58;;;17.88;;
7783;SDS011;19359;51.402;6.778;2022-11-20T06:28:09;31.55;;;18.65;;
7783;SDS011;19359;51.402;6.778;2022-11-20T06:30:35;30.95;;;19.10;;
7783;SDS011;19359;51.402;6.778;2022-11-20T06:33:02;26.23;;;18.63;;
7783;SDS011;19359;51.402;6.778;2022-11-20T06:35:29;29.70;;;18.73;;
7783;SDS011;19359;51.402;6.778;2022-11-20T06:37:56;31.42;;;18.98;;
7783;SDS011;19359;51.402;6.778;2022-11-20T06:40:24;29.23;;;19.85;;
7783;SDS011;19359;51.402;6.778;2022-11-20T06:42:52;27.25;;;18.90;;
7783;SDS011;19359;51.402;6.778;2022-11-20T06:45:19;27.52;;;18.45;;
7783;SDS011;19359;51.402;6.778;2022-11-20T06:47:46;29.15;;;18.40;;
7783;SDS011;19359;51.402;6.778;2022-11-20T06:50:13;27.90;;;17.98;;
7783;SDS011;19359;51.402;6.778;2022-11-20T06:52:40;31.40;;;18.50;;
7783;SDS011;19359;51.402;6.778;2022-11-20T06:55:07;27.85;;;18.58;;
7783;SDS011;19359;51.402;6.778;2022-11-20T06:57:35;30.05;;;19.08;;
7783;SDS011;19359;51.402;6.778;2022-11-20T07:00:02;29.70;;;18.85;;
7783;SDS011;19359;51.402;6.778;2022-11-20T07:02:30;26.67;;;18.25;;
7783;SDS011;19359;51.402;6.778;2022-11-20T07:04:56;31.02;;;18.98;;
7783;SDS011;19359;51.402;6.778;2022-11-20T07:07:24;35.58;;;19.67;;
7783;SDS011;19359;51.402;6.778;2022-11-20T07:09:50;30.52;;;19.45;;
7783;SDS011;19359;51.402;6.778;2022-11-20T07:12:17;31.05;;;18.65;;
7783;SDS011;19359;51.402;6.778;2022-11-20T07:14:45;29.25;;;19.20;;
7783;SDS011;19359;51.402;6.778;2022-11-20T07:17:12;31.60;;;17.65;;
7783;SDS011;19359;51.402;6.778;2022-11-20T07:19:39;30.30;;;18.67;;
7783;SDS011;19359;51.402;6.778;2022-11-20T07:22:05;30.15;;;18.77;;
7783;SDS011;19359;51.402;6.778;2022-11-20T07:24:32;26.08;;;17.17;;
7783;SDS011;19359;51.402;6.778;2022-11-20T07:26:59;29.70;;;17.58;;
7783;SDS011;19359;51.402;6.778;2022-11-20T07:29:26;23.60;;;16.33;;
7783;SDS011;19359;51.402;6.778;2022-11-20T07:31:54;22.42;;;16.58;;
7783;SDS011;19359;51.402;6.778;2022-11-20T07:34:21;27.65;;;15.32;;
7783;SDS011;19359;51.402;6.778;2022-11-20T07:36:48;23.80;;;15.85;;
7783;SDS011;19359;51.402;6.778;2022-11-20T07:39:15;23.58;;;14.38;;
7783;SDS011;19359;51.402;6.778;2022-11-20T07:41:42;23.65;;;14.93;;
7783;SDS011;19359;51.402;6.778;2022-11-20T07:44:08;32.60;;;15.07;;
7783;SDS011;19359;51.402;6.778;2022-11-20T07:46:35;21.85;;;14.48;;
7783;SDS011;19359;51.402;6.778;2022-11-20T07:49:03;30.30;;;16.45;;
7783;SDS011;19359;51.402;6.778;2022-11-20T07:51:30;32.05;;;15.70;;
7783;SDS011;19359;51.402;6.778;2022-11-20T07:53:57;27.05;;;16.75;;
7783;SDS011;19359;51.402;6.778;2022-11-20T07:56:23;26.23;;;16.52;;
7783;SDS011;19359;51.402;6.778;2022-11-20T07:58:50;29.77;;;18.20;;
7783;SDS011;19359;51.402;6.778;2022-11-20T08:01:17;32.65;;;17.63;;
7783;SDS011;19359;51.402;6.778;2022-11-20T08:03:44;30.42;;;19.00;;
7783;SDS011;19359;51.402;6.778;2022-11-20T08:06:12;35.72;;;19.27;;
7783;SDS011;19359;51.402;6.778;2022-11-20T08:08:39;31.08;;;18.15;;
7783;SDS011;19359;51.402;6.778;2022-11-20T08:11:06;29.63;;;18.92;;
7783;SDS011;19359;51.402;6.778;2022-11-20T08:13:50;33.95;;;17.02;;
7783;SDS011;19359;51.402;6.778;2022-11-20T08:16:34;25.73;;;16.73;;
7783;SDS011;19359;51.402;6.778;2022-11-20T08:19:01;24.88;;;16.05;;
7783;SDS011;19359;51.402;6.778;2022-11-20T08:21:29;27.58;;;17.65;;
7783;SDS011;19359;51.402;6.778;2022-11-20T08:23:56;28.65;;;17.05;;
7783;SDS011;19359;51.402;6.778;2022-11-20T08:26:23;29.02;;;17.45;;
7783;SDS011;19359;51.402;6.778;2022-11-20T08:28:52;35.13;;;17.48;;
7783;SDS011;19359;51.402;6.778;2022-11-20T08:31:20;26.02;;;17.17;;
7783;SDS011;19359;51.402;6.778;2022-11-20T08:33:47;27.98;;;18.02;;
7783;SDS011;19359;51.402;6.778;2022-11-20T08:36:14;29.92;;;17.70;;
7783;SDS011;19359;51.402;6.778;2022-11-20T08:38:42;28.83;;;17.58;;
7783;SDS011;19359;51.402;6.778;2022-11-20T08:41:12;40.20;;;16.77;;
7783;SDS011;19359;51.402;6.778;2022-11-20T08:43:52;29.55;;;17.70;;
7783;SDS011;19359;51.402;6.778;2022-11-20T08:46:21;33.67;;;17.42;;
7783;SDS011;19359;51.402;6.778;2022-11-20T08:48:48;24.65;;;15.75;;
7783;SDS011;19359;51.402;6.778;2022-11-20T08:51:15;26.75;;;17.60;;
7783;SDS011;19359;51.402;6.778;2022-11-20T08:53:44;23.40;;;16.50;;
7783;SDS011;19359;51.402;6.778;2022-11-20T08:56:11;23.65;;;16.40;;
7783;SDS011;19359;51.402;6.778;2022-11-20T08:58:38;23.17;;;16.33;;
7783;SDS011;19359;51.402;6.778;2022-11-20T09:01:04;28.60;;;15.38;;
7783;SDS011;19359;51.402;6.778;2022-11-20T09:03:31;25.42;;;16.30;;
7783;SDS011;19359;51.402;6.778;2022-11-20T09:05:58;24.92;;;17.33;;
7783;SDS011;19359;51.402;6.778;2022-11-20T09:08:26;24.13;;;15.77;;
7783;SDS011;19359;51.402;6.778;2022-11-20T09:10:55;25.13;;;16.45;;
7783;SDS011;19359;51.402;6.778;2022-11-20T09:13:22;27.40;;;17.88;;
7783;SDS011;19359;51.402;6.778;2022-11-20T09:15:52;32.80;;;20.23;;
7783;SDS011;19359;51.402;6.778;2022-11-20T09:18:19;31.95;;;18.13;;
7783;SDS011;19359;51.402;6.778;2022-11-20T09:20:46;32.72;;;20.77;;
7783;SDS011;19359;51.402;6.778;2022-11-20T09:23:13;28.25;;;19.30;;
7783;SDS011;19359;51.402;6.778;2022-11-20T09:25:40;32.10;;;18.80;;
7783;SDS011;19359;51.402;6.778;2022-11-20T09:28:08;28.70;;;20.52;;
7783;SDS011;19359;51.402;6.778;2022-11-20T09:30:35;23.80;;;17.45;;
7783;SDS011;19359;51.402;6.778;2022-11-20T09:33:03;26.90;;;17.75;;
7783;SDS011;19359;51.402;6.778;2022-11-20T09:35:30;27.98;;;19.10;;
7783;SDS011;19359;51.402;6.778;2022-11-20T09:37:57;27.00;;;17.45;;
7783;SDS011;19359;51.402;6.778;2022-11-20T09:40:24;29.98;;;19.02;;
7783;SDS011;19359;51.402;6.778;2022-11-20T09:42:54;26.88;;;16.77;;
7783;SDS011;19359;51.402;6.778;2022-11-20T09:45:28;25.30;;;16.42;;
7783;SDS011;19359;51.402;6.778;2022-11-20T09:48:14;29.25;;;16.90;;
7783;SDS011;19359;51.402;6.778;2022-11-20T09:50:53;24.85;;;14.60;;
7783;SDS011;19359;51.402;6.778;2022-11-20T09:53:27;23.63;;;15.10;;
7783;SDS011;19359;51.402;6.778;2022-11-20T09:55:59;26.42;;;15.30;;
7783;SDS011;19359;51.402;6.778;2022-11-20T09:58:28;28.25;;;15.63;;
7783;SDS011;19359;51.402;6.778;2022-11-20T10:01:03;24.27;;;15.43;;
7783;SDS011;19359;51.402;6.778;2022-11-20T10:03:38;21.45;;;15.02;;
7783;SDS011;19359;51.402;6.778;2022-11-20T10:06:12;26.90;;;14.93;;
7783;SDS011;19359;51.402;6.778;2022-11-20T10:08:45;24.52;;;15.68;;
7783;SDS011;19359;51.402;6.778;2022-11-20T10:11:21;24.65;;;13.30;;
7783;SDS011;19359;51.402;6.778;2022-11-20T10:14:00;23.08;;;13.65;;
7783;SDS011;19359;51.402;6.778;2022-11-20T10:16:35;20.10;;;13.35;;
7783;SDS011;19359;51.402;6.778;2022-11-20T10:19:12;24.23;;;13.88;;
7783;SDS011;19359;51.402;6.778;2022-11-20T10:21:53;22.65;;;13.73;;
7783;SDS011;19359;51.402;6.778;2022-11-20T10:24:39;22.08;;;14.60;;
7783;SDS011;19359;51.402;6.778;2022-11-20T10:27:15;21.25;;;13.13;;
7783;SDS011;19359;51.402;6.778;2022-11-20T10:29:59;18.40;;;12.15;;
7783;SDS011;19359;51.402;6.778;2022-11-20T10:32:33;19.10;;;13.05;;
7783;SDS011;19359;51.402;6.778;2022-11-20T10:35:04;18.58;;;11.90;;
7783;SDS011;19359;51.402;6.778;2022-11-20T10:37:40;18.23;;;12.35;;
7783;SDS011;19359;51.402;6.778;2022-11-20T10:40:15;21.67;;;11.95;;
7783;SDS011;19359;51.402;6.778;2022-11-20T10:42:49;18.98;;;12.75;;
7783;SDS011;19359;51.402;6.778;2022-11-20T10:45:25;20.92;;;11.63;;
7783;SDS011;19359;51.402;6.778;2022-11-20T10:48:14;20.40;;;12.73;;
7783;SDS011;19359;51.402;6.778;2022-11-20T10:50:46;17.20;;;12.13;;
7783;SDS011;19359;51.402;6.778;2022-11-20T10:53:28;16.88;;;11.57;;
7783;SDS011;19359;51.402;6.778;2022-11-20T10:56:05;17.80;;;11.38;;
7783;SDS011;19359;51.402;6.778;2022-11-20T10:58:42;19.48;;;11.45;;
7783;SDS011;19359;51.402;6.778;2022-11-20T11:01:17;20.02;;;11.32;;
7783;SDS011;19359;51.402;6.778;2022-11-20T11:03:48;15.02;;;11.63;;
7783;SDS011;19359;51.402;6.778;2022-11-20T11:06:18;18.10;;;12.15;;
7783;SDS011;19359;51.402;6.778;2022-11-20T11:08:51;17.83;;;11.57;;
7783;SDS011;19359;51.402;6.778;2022-11-20T11:11:22;18.75;;;11.73;;
7783;SDS011;19359;51.402;6.778;2022-11-20T11:13:50;17.50;;;11.52;;
7783;SDS011;19359;51.402;6.778;2022-11-20T11:16:21;19.30;;;11.15;;
7783;SDS011;19359;51.402;6.778;2022-11-20T11:18:51;17.13;;;11.20;;
7783;SDS011;19359;51.402;6.778;2022-11-20T11:21:21;18.60;;;11.23;;
7783;SDS011;19359;51.402;6.778;2022-11-20T11:23:57;23.05;;;11.32;;
7783;SDS011;19359;51.402;6.778;2022-11-20T11:26:25;16.75;;;11.27;;
7783;SDS011;19359;51.402;6.778;2022-11-20T11:28:53;21.13;;;11.85;;
7783;SDS011;19359;51.402;6.778;2022-11-20T11:31:22;18.20;;;12.10;;
7783;SDS011;19359;51.402;6.778;2022-11-20T11:33:51;22.05;;;12.68;;
7783;SDS011;19359;51.402;6.778;2022-11-20T11:36:18;19.38;;;11.52;;
7783;SDS011;19359;51.402;6.778;2022-11-20T11:38:50;19.60;;;12.35;;
7783;SDS011;19359;51.402;6.778;2022-11-20T11:41:20;21.10;;;12.65;;
7783;SDS011;19359;51.402;6.778;2022-11-20T11:43:51;18.63;;;11.45;;
7783;SDS011;19359;51.402;6.778;2022-11-20T11:46:37;21.63;;;12.43;;
7783;SDS011;19359;51.402;6.778;2022-11-20T11:49:14;22.13;;;13.48;;
7783;SDS011;19359;51.402;6.778;2022-11-20T11:51:46;22.15;;;12.18;;
7783;SDS011;19359;51.402;6.778;2022-11-20T11:54:23;21.20;;;12.32;;
7783;SDS011;19359;51.402;6.778;2022-11-20T11:56:53;21.98;;;11.57;;
7783;SDS011;19359;51.402;6.778;2022-11-20T11:59:23;21.77;;;12.55;;
7783;SDS011;19359;51.402;6.778;2022-11-20T12:01:55;20.95;;;12.23;;
7783;SDS011;19359;51.402;6.778;2022-11-20T12:04:30;18.50;;;12.70;;
7783;SDS011;19359;51.402;6.778;2022-11-20T12:07:07;18.58;;;13.43;;
7783;SDS011;19359;51.402;6.778;2022-11-20T12:09:41;18.48;;;12.90;;
7783;SDS011;19359;51.402;6.778;2022-11-20T12:12:10;18.65;;;12.02;;
7783;SDS011;19359;51.402;6.778;2022-11-20T12:14:43;22.80;;;13.18;;
7783;SDS011;19359;51.402;6.778;2022-11-20T12:17:14;18.90;;;10.80;;
7783;SDS011;19359;51.402;6.778;2022-11-20T12:19:44;21.10;;;12.40;;
7783;SDS011;19359;51.402;6.778;2022-11-20T12:22:13;21.67;;;12.40;;
7783;SDS011;19359;51.402;6.778;2022-11-20T12:24:51;20.48;;;11.43;;
7783;SDS011;19359;51.402;6.778;2022-11-20T12:27:32;27.17;;;12.13;;
7783;SDS011;19359;51.402;6.778;2022-11-20T12:30:10;20.23;;;11.98;;
7783;SDS011;19359;51.402;6.778;2022-11-20T12:32:45;21.95;;;11.98;;
7783;SDS011;19359;51.402;6.778;2022-11-20T12:35:32;22.80;;;12.60;;
7783;SDS011;19359;51.402;6.778;2022-11-20T12:38:20;22.13;;;12.10;;
7783;SDS011;19359;51.402;6.778;2022-11-20T12:41:02;17.65;;;11.85;;
7783;SDS011;19359;51.402;6.778;2022-11-20T12:43:39;24.15;;;13.05;;
7783;SDS011;19359;51.402;6.778;2022-11-20T12:46:33;22.30;;;12.77;;
7783;SDS011;19359;51.402;6.778;2022-11-20T12:49:14;26.35;;;11.50;;
7783;SDS011;19359;51.402;6.778;2022-11-20T12:52:00;19.85;;;11.45;;
7783;SDS011;19359;51.402;6.778;2022-11-20T12:54:47;17.70;;;10.77;;
7783;SDS011;19359;51.402;6.778;2022-11-20T12:57:27;18.40;;;11.68;;
7783;SDS011;19359;51.402;6.778;2022-11-20T13:00:06;22.42;;;11.55;;
7783;SDS011;19359;51.402;6.778;2022-11-20T13:02:38;19.77;;;11.57;;
7783;SDS011;19359;51.402;6.778;2022-11-20T13:05:24;20.45;;;12.32;;
7783;SDS011;19359;51.402;6.778;2022-11-20T13:07:59;16.60;;;11.15;;
7783;SDS011;19359;51.402;6.778;2022-11-20T13:10:30;19.05;;;11.38;;
7783;SDS011;19359;51.402;6.778;2022-11-20T13:13:01;16.05;;;10.48;;
7783;SDS011;19359;51.402;6.778;2022-11-20T13:15:37;22.50;;;13.45;;
7783;SDS011;19359;51.402;6.778;2022-11-20T13:18:11;18.40;;;11.95;;
7783;SDS011;19359;51.402;6.778;2022-11-20T13:20:43;20.77;;;12.60;;
7783;SDS011;19359;51.402;6.778;2022-11-20T13:23:22;19.92;;;12.60;;
7783;SDS011;19359;51.402;6.778;2022-11-20T13:25:49;22.80;;;13.25;;
7783;SDS011;19359;51.402;6.778;2022-11-20T13:28:26;18.98;;;12.18;;
7783;SDS011;19359;51.402;6.778;2022-11-20T13:30:55;23.75;;;13.27;;
7783;SDS011;19359;51.402;6.778;2022-11-20T13:33:25;21.70;;;13.13;;
7783;SDS011;19359;51.402;6.778;2022-11-20T13:35:56;24.25;;;13.60;;
7783;SDS011;19359;51.402;6.778;2022-11-20T13:38:25;20.00;;;12.48;;
7783;SDS011;19359;51.402;6.778;2022-11-20T13:40:53;24.25;;;14.95;;
7783;SDS011;19359;51.402;6.778;2022-11-20T13:43:22;25.70;;;13.57;;
7783;SDS011;19359;51.402;6.778;2022-11-20T13:45:58;22.63;;;14.02;;
7783;SDS011;19359;51.402;6.778;2022-11-20T13:48:26;24.77;;;15.13;;
7783;SDS011;19359;51.402;6.778;2022-11-20T13:51:00;29.80;;;16.25;;
7783;SDS011;19359;51.402;6.778;2022-11-20T13:53:57;25.17;;;15.25;;
7783;SDS011;19359;51.402;6.778;2022-11-20T13:56:48;24.73;;;14.93;;
7783;SDS011;19359;51.402;6.778;2022-11-20T13:59:28;24.58;;;15.88;;
7783;SDS011;19359;51.402;6.778;2022-11-20T14:02:10;25.08;;;15.02;;
7783;SDS011;19359;51.402;6.778;2022-11-20T14:04:41;23.60;;;14.30;;
7783;SDS011;19359;51.402;6.778;2022-11-20T14:07:10;24.63;;;14.80;;
7783;SDS011;19359;51.402;6.778;2022-11-20T14:09:48;27.15;;;15.68;;
7783;SDS011;19359;51.402;6.778;2022-11-20T14:12:17;24.08;;;14.32;;
7783;SDS011;19359;51.402;6.778;2022-11-20T14:14:49;26.02;;;14.63;;
7783;SDS011;19359;51.402;6.778;2022-11-20T14:17:17;22.27;;;14.88;;
7783;SDS011;19359;51.402;6.778;2022-11-20T14:19:46;23.90;;;15.07;;
7783;SDS011;19359;51.402;6.778;2022-11-20T14:22:18;24.50;;;16.27;;
7783;SDS011;19359;51.402;6.778;2022-11-20T14:24:48;27.05;;;15.10;;
7783;SDS011;19359;51.402;6.778;2022-11-20T14:27:26;26.50;;;15.80;;
7783;SDS011;19359;51.402;6.778;2022-11-20T14:29:53;32.22;;;17.42;;
7783;SDS011;19359;51.402;6.778;2022-11-20T14:32:21;28.58;;;16.77;;
7783;SDS011;19359;51.402;6.778;2022-11-20T14:34:54;30.15;;;16.63;;
7783;SDS011;19359;51.402;6.778;2022-11-20T14:37:30;31.25;;;15.13;;
7783;SDS011;19359;51.402;6.778;2022-11-20T14:40:01;26.50;;;15.50;;
7783;SDS011;19359;51.402;6.778;2022-11-20T14:42:28;23.25;;;14.60;;
7783;SDS011;19359;51.402;6.778;2022-11-20T14:44:56;37.80;;;15.77;;
7783;SDS011;19359;51.402;6.778;2022-11-20T14:47:24;28.38;;;15.38;;
7783;SDS011;19359;51.402;6.778;2022-11-20T14:49:53;24.60;;;15.15;;